sensor_id;sensor_type;location;lat;lon;timestamp;P1;durP1;ratioP1;P2;durP2;ratioP2
33022;SDS011;19390;51.460;5.710;2024-02-21T00:00:47;17.50;;;5.90;;
33022;SDS011;19390;51.460;5.710;2024-02-21T00:03:12;15.85;;;6.60;;
33022;SDS011;19390;51.460;5.710;2024-02-21T00:05:38;20.65;;;6.82;;
33022;SDS011;19390;51.460;5.710;2024-02-21T00:08:04;14.90;;;5.65;;
33022;SDS011;19390;51.460;5.710;2024-02-21T00:10:29;20.27;;;6.65;;
33022;SDS011;19390;51.460;5.710;2024-02-21T00:12:57;23.00;;;7.65;;
33022;SDS011;19390;51.460;5.710;2024-02-21T00:15:24;23.02;;;6.25;;
33022;SDS011;19390;51.460;5.710;2024-02-21T00:17:50;21.20;;;5.93;;
33022;SDS011;19390;51.460;5.710;2024-02-21T00:20:15;19.67;;;6.85;;
33022;SDS011;19390;51.460;5.710;2024-02-21T00:22:42;24.63;;;6.20;;
33022;SDS011;19390;51.460;5.710;2024-02-21T00:25:08;20.13;;;5.97;;
33022;SDS011;19390;51.460;5.710;2024-02-21T00:27:33;23.23;;;6.40;;
33022;SDS011;19390;51.460;5.710;2024-02-21T00:29:59;19.45;;;5.88;;
33022;SDS011;19390;51.460;5.710;2024-02-21T00:32:25;17.83;;;5.30;;
33022;SDS011;19390;51.460;5.710;2024-02-21T00:34:50;18.60;;;7.20;;
33022;SDS011;19390;51.460;5.710;2024-02-21T00:37:16;20.35;;;6.10;;
33022;SDS011;19390;51.460;5.710;2024-02-21T00:39:41;18.75;;;5.55;;
33022;SDS011;19390;51.460;5.710;2024-02-21T00:42:07;15.82;;;5.65;;
33022;SDS011;19390;51.460;5.710;2024-02-21T00:44:33;18.58;;;5.55;;
33022;SDS011;19390;51.460;5.710;2024-02-21T00:46:58;20.30;;;5.63;;
33022;SDS011;19390;51.460;5.710;2024-02-21T00:49:24;18.10;;;5.18;;
33022;SDS011;19390;51.460;5.710;2024-02-21T00:51:50;13.25;;;4.97;;
33022;SDS011;19390;51.460;5.710;2024-02-21T00:54:15;21.58;;;5.45;;
33022;SDS011;19390;51.460;5.710;2024-02-21T00:56:41;22.08;;;5.40;;
33022;SDS011;19390;51.460;5.710;2024-02-21T00:59:07;20.38;;;5.95;;
33022;SDS011;19390;51.460;5.710;2024-02-21T01:01:33;13.63;;;5.28;;
33022;SDS011;19390;51.460;5.710;2024-02-21T01:03:58;18.17;;;5.55;;
33022;SDS011;19390;51.460;5.710;2024-02-21T01:06:25;18.33;;;5.40;;
33022;SDS011;19390;51.460;5.710;2024-02-21T01:08:50;10.40;;;4.50;;
33022;SDS011;19390;51.460;5.710;2024-02-21T01:11:16;13.05;;;5.32;;
33022;SDS011;19390;51.460;5.710;2024-02-21T01:13:42;21.92;;;5.53;;
33022;SDS011;19390;51.460;5.710;2024-02-21T01:16:07;14.65;;;5.05;;
33022;SDS011;19390;51.460;5.710;2024-02-21T01:18:33;20.85;;;5.47;;
33022;SDS011;19390;51.460;5.710;2024-02-21T01:20:59;19.98;;;4.68;;
33022;SDS011;19390;51.460;5.710;2024-02-21T01:23:25;15.02;;;4.63;;
33022;SDS011;19390;51.460;5.710;2024-02-21T01:25:51;23.13;;;5.00;;
33022;SDS011;19390;51.460;5.710;2024-02-21T01:28:17;17.80;;;5.22;;
33022;SDS011;19390;51.460;5.710;2024-02-21T01:30:43;20.75;;;4.70;;
33022;SDS011;19390;51.460;5.710;2024-02-21T01:33:09;20.65;;;5.65;;
33022;SDS011;19390;51.460;5.710;2024-02-21T01:35:35;14.23;;;5.22;;
33022;SDS011;19390;51.460;5.710;2024-02-21T01:38:02;14.30;;;5.35;;
33022;SDS011;19390;51.460;5.710;2024-02-21T01:40:27;15.95;;;5.00;;
33022;SDS011;19390;51.460;5.710;2024-02-21T01:42:55;18.00;;;4.88;;
33022;SDS011;19390;51.460;5.710;2024-02-21T01:45:20;16.50;;;5.25;;
33022;SDS011;19390;51.460;5.710;2024-02-21T01:47:46;15.77;;;4.97;;
33022;SDS011;19390;51.460;5.710;2024-02-21T01:50:13;20.13;;;5.35;;
33022;SDS011;19390;51.460;5.710;2024-02-21T01:52:40;20.55;;;4.65;;
33022;SDS011;19390;51.460;5.710;2024-02-21T01:55:09;20.13;;;4.85;;
33022;SDS011;19390;51.460;5.710;2024-02-21T01:57:35;15.88;;;4.65;;
33022;SDS011;19390;51.460;5.710;2024-02-21T02:00:01;10.70;;;4.45;;
33022;SDS011;19390;51.460;5.710;2024-02-21T02:02:28;14.90;;;4.43;;
33022;SDS011;19390;51.460;5.710;2024-02-21T02:04:54;18.13;;;4.93;;
33022;SDS011;19390;51.460;5.710;2024-02-21T02:07:21;12.23;;;5.25;;
33022;SDS011;19390;51.460;5.710;2024-02-21T02:09:46;17.88;;;4.60;;
33022;SDS011;19390;51.460;5.710;2024-02-21T02:12:12;12.15;;;4.15;;
33022;SDS011;19390;51.460;5.710;2024-02-21T02:14:38;12.85;;;5.13;;
33022;SDS011;19390;51.460;5.710;2024-02-21T02:17:04;10.73;;;4.63;;
33022;SDS011;19390;51.460;5.710;2024-02-21T02:19:30;15.10;;;4.15;;
33022;SDS011;19390;51.460;5.710;2024-02-21T02:21:58;12.88;;;4.13;;
33022;SDS011;19390;51.460;5.710;2024-02-21T02:24:31;9.45;;;3.63;;
33022;SDS011;19390;51.460;5.710;2024-02-21T02:26:57;9.80;;;4.38;;
33022;SDS011;19390;51.460;5.710;2024-02-21T02:29:22;16.73;;;4.57;;
33022;SDS011;19390;51.460;5.710;2024-02-21T02:31:48;18.77;;;4.82;;
33022;SDS011;19390;51.460;5.710;2024-02-21T02:34:14;15.73;;;4.10;;
33022;SDS011;19390;51.460;5.710;2024-02-21T02:36:40;7.57;;;4.32;;
33022;SDS011;19390;51.460;5.710;2024-02-21T02:39:05;7.85;;;3.90;;
33022;SDS011;19390;51.460;5.710;2024-02-21T02:41:34;15.45;;;4.63;;
33022;SDS011;19390;51.460;5.710;2024-02-21T02:44:00;14.88;;;4.22;;
33022;SDS011;19390;51.460;5.710;2024-02-21T02:46:26;13.73;;;3.65;;
33022;SDS011;19390;51.460;5.710;2024-02-21T02:48:51;7.38;;;3.90;;
33022;SDS011;19390;51.460;5.710;2024-02-21T02:51:17;10.85;;;3.63;;
33022;SDS011;19390;51.460;5.710;2024-02-21T02:53:43;15.80;;;3.90;;
33022;SDS011;19390;51.460;5.710;2024-02-21T02:56:13;16.38;;;4.97;;
33022;SDS011;19390;51.460;5.710;2024-02-21T02:58:45;13.75;;;4.28;;
33022;SDS011;19390;51.460;5.710;2024-02-21T03:01:11;10.10;;;5.15;;
33022;SDS011;19390;51.460;5.710;2024-02-21T03:03:36;13.43;;;4.05;;
33022;SDS011;19390;51.460;5.710;2024-02-21T03:06:02;15.90;;;4.57;;
33022;SDS011;19390;51.460;5.710;2024-02-21T03:08:29;15.60;;;5.13;;
33022;SDS011;19390;51.460;5.710;2024-02-21T03:10:55;9.55;;;4.20;;
33022;SDS011;19390;51.460;5.710;2024-02-21T03:13:20;9.18;;;3.65;;
33022;SDS011;19390;51.460;5.710;2024-02-21T03:15:46;16.70;;;4.38;;
33022;SDS011;19390;51.460;5.710;2024-02-21T03:18:11;9.93;;;4.07;;
33022;SDS011;19390;51.460;5.710;2024-02-21T03:20:37;13.30;;;4.68;;
33022;SDS011;19390;51.460;5.710;2024-02-21T03:23:02;10.43;;;4.60;;
33022;SDS011;19390;51.460;5.710;2024-02-21T03:25:28;11.32;;;4.47;;
33022;SDS011;19390;51.460;5.710;2024-02-21T03:27:54;14.13;;;4.57;;
33022;SDS011;19390;51.460;5.710;2024-02-21T03:30:19;14.52;;;5.15;;
33022;SDS011;19390;51.460;5.710;2024-02-21T03:32:45;19.23;;;4.53;;
33022;SDS011;19390;51.460;5.710;2024-02-21T03:35:11;18.88;;;5.38;;
33022;SDS011;19390;51.460;5.710;2024-02-21T03:37:36;13.07;;;5.47;;
33022;SDS011;19390;51.460;5.710;2024-02-21T03:40:02;12.18;;;4.78;;
33022;SDS011;19390;51.460;5.710;2024-02-21T03:42:32;14.07;;;5.55;;
33022;SDS011;19390;51.460;5.710;2024-02-21T03:44:57;13.07;;;5.90;;
33022;SDS011;19390;51.460;5.710;2024-02-21T03:47:23;16.42;;;5.70;;
33022;SDS011;19390;51.460;5.710;2024-02-21T03:49:49;15.02;;;5.78;;
33022;SDS011;19390;51.460;5.710;2024-02-21T03:52:15;21.85;;;6.38;;
33022;SDS011;19390;51.460;5.710;2024-02-21T03:54:41;16.67;;;5.43;;
33022;SDS011;19390;51.460;5.710;2024-02-21T03:57:06;17.90;;;5.95;;
33022;SDS011;19390;51.460;5.710;2024-02-21T03:59:32;23.13;;;6.28;;
33022;SDS011;19390;51.460;5.710;2024-02-21T04:01:58;19.05;;;6.07;;
33022;SDS011;19390;51.460;5.710;2024-02-21T04:04:24;13.35;;;5.57;;
33022;SDS011;19390;51.460;5.710;2024-02-21T04:06:50;22.33;;;7.03;;
33022;SDS011;19390;51.460;5.710;2024-02-21T04:09:16;14.10;;;6.28;;
33022;SDS011;19390;51.460;5.710;2024-02-21T04:11:42;13.95;;;5.50;;
33022;SDS011;19390;51.460;5.710;2024-02-21T04:14:08;15.15;;;5.85;;
33022;SDS011;19390;51.460;5.710;2024-02-21T04:16:34;18.67;;;5.70;;
33022;SDS011;19390;51.460;5.710;2024-02-21T04:19:00;18.48;;;6.32;;
33022;SDS011;19390;51.460;5.710;2024-02-21T04:21:27;17.65;;;6.25;;
33022;SDS011;19390;51.460;5.710;2024-02-21T04:23:52;15.93;;;7.53;;
33022;SDS011;19390;51.460;5.710;2024-02-21T04:26:18;20.17;;;6.35;;
33022;SDS011;19390;51.460;5.710;2024-02-21T04:28:44;17.42;;;5.47;;
33022;SDS011;19390;51.460;5.710;2024-02-21T04:31:11;16.73;;;5.63;;
33022;SDS011;19390;51.460;5.710;2024-02-21T04:33:36;17.45;;;6.25;;
33022;SDS011;19390;51.460;5.710;2024-02-21T04:36:02;18.40;;;6.22;;
33022;SDS011;19390;51.460;5.710;2024-02-21T04:38:27;16.52;;;5.72;;
33022;SDS011;19390;51.460;5.710;2024-02-21T04:40:54;17.08;;;5.80;;
33022;SDS011;19390;51.460;5.710;2024-02-21T04:43:20;21.95;;;6.97;;
33022;SDS011;19390;51.460;5.710;2024-02-21T04:45:46;17.33;;;7.80;;
33022;SDS011;19390;51.460;5.710;2024-02-21T04:48:11;21.98;;;7.18;;
33022;SDS011;19390;51.460;5.710;2024-02-21T04:50:37;20.30;;;7.18;;
33022;SDS011;19390;51.460;5.710;2024-02-21T04:53:02;15.75;;;5.80;;
33022;SDS011;19390;51.460;5.710;2024-02-21T04:55:28;20.05;;;6.65;;
33022;SDS011;19390;51.460;5.710;2024-02-21T04:57:53;19.40;;;6.65;;
33022;SDS011;19390;51.460;5.710;2024-02-21T05:00:19;22.40;;;7.18;;
33022;SDS011;19390;51.460;5.710;2024-02-21T05:02:45;13.75;;;5.88;;
33022;SDS011;19390;51.460;5.710;2024-02-21T05:05:10;16.27;;;7.20;;
33022;SDS011;19390;51.460;5.710;2024-02-21T05:07:36;18.35;;;7.25;;
33022;SDS011;19390;51.460;5.710;2024-02-21T05:10:02;23.08;;;6.75;;
33022;SDS011;19390;51.460;5.710;2024-02-21T05:12:27;12.75;;;6.57;;
33022;SDS011;19390;51.460;5.710;2024-02-21T05:14:54;19.67;;;7.03;;
33022;SDS011;19390;51.460;5.710;2024-02-21T05:17:20;25.73;;;6.47;;
33022;SDS011;19390;51.460;5.710;2024-02-21T05:19:46;11.75;;;5.97;;
33022;SDS011;19390;51.460;5.710;2024-02-21T05:22:11;17.88;;;6.85;;
33022;SDS011;19390;51.460;5.710;2024-02-21T05:24:38;17.30;;;6.32;;
33022;SDS011;19390;51.460;5.710;2024-02-21T05:27:04;15.55;;;5.85;;
33022;SDS011;19390;51.460;5.710;2024-02-21T05:29:30;16.52;;;6.57;;
33022;SDS011;19390;51.460;5.710;2024-02-21T05:31:56;23.83;;;5.68;;
33022;SDS011;19390;51.460;5.710;2024-02-21T05:34:25;12.43;;;5.90;;
33022;SDS011;19390;51.460;5.710;2024-02-21T05:36:51;11.57;;;5.07;;
33022;SDS011;19390;51.460;5.710;2024-02-21T05:39:17;15.57;;;5.82;;
33022;SDS011;19390;51.460;5.710;2024-02-21T05:41:43;16.13;;;5.38;;
33022;SDS011;19390;51.460;5.710;2024-02-21T05:44:08;16.45;;;5.07;;
33022;SDS011;19390;51.460;5.710;2024-02-21T05:46:34;20.85;;;6.32;;
33022;SDS011;19390;51.460;5.710;2024-02-21T05:49:00;15.32;;;5.97;;
33022;SDS011;19390;51.460;5.710;2024-02-21T05:51:26;17.63;;;5.25;;
33022;SDS011;19390;51.460;5.710;2024-02-21T05:53:51;17.23;;;5.68;;
33022;SDS011;19390;51.460;5.710;2024-02-21T05:56:17;21.38;;;6.32;;
33022;SDS011;19390;51.460;5.710;2024-02-21T05:58:43;18.60;;;6.95;;
33022;SDS011;19390;51.460;5.710;2024-02-21T06:01:09;16.63;;;5.72;;
33022;SDS011;19390;51.460;5.710;2024-02-21T06:03:34;16.38;;;5.50;;
33022;SDS011;19390;51.460;5.710;2024-02-21T06:06:01;13.85;;;6.57;;
33022;SDS011;19390;51.460;5.710;2024-02-21T06:08:27;24.15;;;6.45;;
33022;SDS011;19390;51.460;5.710;2024-02-21T06:10:52;16.30;;;6.03;;
33022;SDS011;19390;51.460;5.710;2024-02-21T06:13:19;21.35;;;6.38;;
33022;SDS011;19390;51.460;5.710;2024-02-21T06:15:46;12.80;;;5.50;;
33022;SDS011;19390;51.460;5.710;2024-02-21T06:18:12;17.83;;;6.28;;
33022;SDS011;19390;51.460;5.710;2024-02-21T06:20:38;15.75;;;5.97;;
33022;SDS011;19390;51.460;5.710;2024-02-21T06:23:05;16.92;;;6.05;;
33022;SDS011;19390;51.460;5.710;2024-02-21T06:25:31;22.08;;;6.70;;
33022;SDS011;19390;51.460;5.710;2024-02-21T06:27:57;18.92;;;5.95;;
33022;SDS011;19390;51.460;5.710;2024-02-21T06:30:22;15.27;;;5.68;;
33022;SDS011;19390;51.460;5.710;2024-02-21T06:32:48;16.55;;;5.75;;
33022;SDS011;19390;51.460;5.710;2024-02-21T06:35:13;18.48;;;8.98;;
33022;SDS011;19390;51.460;5.710;2024-02-21T06:37:39;18.30;;;7.00;;
33022;SDS011;19390;51.460;5.710;2024-02-21T06:40:05;16.58;;;6.72;;
33022;SDS011;19390;51.460;5.710;2024-02-21T06:42:31;19.48;;;6.38;;
33022;SDS011;19390;51.460;5.710;2024-02-21T06:44:56;16.33;;;6.80;;
33022;SDS011;19390;51.460;5.710;2024-02-21T06:47:22;22.05;;;7.80;;
33022;SDS011;19390;51.460;5.710;2024-02-21T06:49:48;18.27;;;7.10;;
33022;SDS011;19390;51.460;5.710;2024-02-21T06:52:16;19.85;;;7.40;;
33022;SDS011;19390;51.460;5.710;2024-02-21T06:54:45;14.98;;;6.20;;
33022;SDS011;19390;51.460;5.710;2024-02-21T06:57:12;19.27;;;7.05;;
33022;SDS011;19390;51.460;5.710;2024-02-21T06:59:38;20.25;;;7.03;;
33022;SDS011;19390;51.460;5.710;2024-02-21T07:02:04;18.45;;;6.63;;
33022;SDS011;19390;51.460;5.710;2024-02-21T07:04:30;22.38;;;7.82;;
33022;SDS011;19390;51.460;5.710;2024-02-21T07:06:56;16.48;;;7.03;;
33022;SDS011;19390;51.460;5.710;2024-02-21T07:09:21;21.73;;;7.63;;
33022;SDS011;19390;51.460;5.710;2024-02-21T07:11:47;21.40;;;7.57;;
33022;SDS011;19390;51.460;5.710;2024-02-21T07:14:14;26.05;;;7.65;;
33022;SDS011;19390;51.460;5.710;2024-02-21T07:16:40;20.88;;;8.25;;
33022;SDS011;19390;51.460;5.710;2024-02-21T07:19:06;14.90;;;6.63;;
33022;SDS011;19390;51.460;5.710;2024-02-21T07:21:32;21.83;;;7.95;;
33022;SDS011;19390;51.460;5.710;2024-02-21T07:23:57;17.63;;;7.03;;
33022;SDS011;19390;51.460;5.710;2024-02-21T07:26:23;16.55;;;7.07;;
33022;SDS011;19390;51.460;5.710;2024-02-21T07:28:49;18.92;;;6.72;;
33022;SDS011;19390;51.460;5.710;2024-02-21T07:31:14;15.82;;;6.50;;
33022;SDS011;19390;51.460;5.710;2024-02-21T07:33:40;20.25;;;7.35;;
33022;SDS011;19390;51.460;5.710;2024-02-21T07:36:06;21.02;;;6.68;;
33022;SDS011;19390;51.460;5.710;2024-02-21T07:38:33;13.20;;;5.82;;
33022;SDS011;19390;51.460;5.710;2024-02-21T07:40:59;14.95;;;5.47;;
33022;SDS011;19390;51.460;5.710;2024-02-21T07:43:25;17.35;;;6.80;;
33022;SDS011;19390;51.460;5.710;2024-02-21T07:45:51;13.55;;;6.13;;
33022;SDS011;19390;51.460;5.710;2024-02-21T07:48:18;21.08;;;7.40;;
33022;SDS011;19390;51.460;5.710;2024-02-21T07:50:44;22.20;;;8.68;;
33022;SDS011;19390;51.460;5.710;2024-02-21T07:53:09;18.40;;;6.90;;
33022;SDS011;19390;51.460;5.710;2024-02-21T07:55:35;14.73;;;6.30;;
33022;SDS011;19390;51.460;5.710;2024-02-21T07:58:00;13.68;;;5.47;;
33022;SDS011;19390;51.460;5.710;2024-02-21T08:00:26;12.63;;;5.05;;
33022;SDS011;19390;51.460;5.710;2024-02-21T08:02:52;11.35;;;4.85;;
33022;SDS011;19390;51.460;5.710;2024-02-21T08:05:17;15.98;;;6.72;;
33022;SDS011;19390;51.460;5.710;2024-02-21T08:07:43;9.32;;;4.95;;
33022;SDS011;19390;51.460;5.710;2024-02-21T08:10:09;15.00;;;5.20;;
33022;SDS011;19390;51.460;5.710;2024-02-21T08:12:35;12.70;;;4.72;;
33022;SDS011;19390;51.460;5.710;2024-02-21T08:15:00;10.82;;;4.53;;
33022;SDS011;19390;51.460;5.710;2024-02-21T08:17:28;31.35;;;5.85;;
33022;SDS011;19390;51.460;5.710;2024-02-21T08:19:54;10.35;;;4.43;;
33022;SDS011;19390;51.460;5.710;2024-02-21T08:22:19;14.65;;;5.10;;
33022;SDS011;19390;51.460;5.710;2024-02-21T08:24:45;10.52;;;4.43;;
33022;SDS011;19390;51.460;5.710;2024-02-21T08:27:11;11.98;;;5.55;;
33022;SDS011;19390;51.460;5.710;2024-02-21T08:29:36;9.80;;;5.43;;
33022;SDS011;19390;51.460;5.710;2024-02-21T08:32:02;13.52;;;5.18;;
33022;SDS011;19390;51.460;5.710;2024-02-21T08:34:28;14.77;;;5.45;;
33022;SDS011;19390;51.460;5.710;2024-02-21T08:36:55;12.40;;;4.47;;
33022;SDS011;19390;51.460;5.710;2024-02-21T08:39:21;11.18;;;4.78;;
33022;SDS011;19390;51.460;5.710;2024-02-21T08:41:46;11.88;;;5.25;;
33022;SDS011;19390;51.460;5.710;2024-02-21T08:44:12;9.60;;;4.72;;
33022;SDS011;19390;51.460;5.710;2024-02-21T08:46:37;11.63;;;4.78;;
33022;SDS011;19390;51.460;5.710;2024-02-21T08:49:05;10.00;;;4.70;;
33022;SDS011;19390;51.460;5.710;2024-02-21T08:51:31;10.38;;;4.88;;
33022;SDS011;19390;51.460;5.710;2024-02-21T08:53:57;10.00;;;4.28;;
33022;SDS011;19390;51.460;5.710;2024-02-21T08:56:23;12.68;;;4.32;;
33022;SDS011;19390;51.460;5.710;2024-02-21T08:58:49;9.75;;;3.78;;
33022;SDS011;19390;51.460;5.710;2024-02-21T09:01:15;11.95;;;5.07;;
33022;SDS011;19390;51.460;5.710;2024-02-21T09:03:40;9.82;;;4.15;;
33022;SDS011;19390;51.460;5.710;2024-02-21T09:06:06;9.35;;;4.70;;
33022;SDS011;19390;51.460;5.710;2024-02-21T09:08:34;13.30;;;4.68;;
33022;SDS011;19390;51.460;5.710;2024-02-21T09:11:00;12.57;;;5.10;;
33022;SDS011;19390;51.460;5.710;2024-02-21T09:13:26;16.55;;;4.93;;
33022;SDS011;19390;51.460;5.710;2024-02-21T09:15:52;10.05;;;5.18;;
33022;SDS011;19390;51.460;5.710;2024-02-21T09:18:17;13.38;;;5.75;;
33022;SDS011;19390;51.460;5.710;2024-02-21T09:20:43;15.90;;;6.07;;
33022;SDS011;19390;51.460;5.710;2024-02-21T09:23:09;11.55;;;5.47;;
33022;SDS011;19390;51.460;5.710;2024-02-21T09:25:35;14.40;;;5.53;;
33022;SDS011;19390;51.460;5.710;2024-02-21T09:28:01;11.55;;;5.78;;
33022;SDS011;19390;51.460;5.710;2024-02-21T09:30:27;10.07;;;5.30;;
33022;SDS011;19390;51.460;5.710;2024-02-21T09:32:53;10.70;;;4.97;;
33022;SDS011;19390;51.460;5.710;2024-02-21T09:35:19;11.10;;;5.43;;
33022;SDS011;19390;51.460;5.710;2024-02-21T09:37:47;13.50;;;5.47;;
33022;SDS011;19390;51.460;5.710;2024-02-21T09:40:15;14.65;;;5.53;;
33022;SDS011;19390;51.460;5.710;2024-02-21T09:42:42;11.82;;;5.43;;
33022;SDS011;19390;51.460;5.710;2024-02-21T09:45:18;14.60;;;5.85;;
33022;SDS011;19390;51.460;5.710;2024-02-21T09:48:00;18.67;;;6.30;;
33022;SDS011;19390;51.460;5.710;2024-02-21T09:50:47;9.43;;;4.68;;
33022;SDS011;19390;51.460;5.710;2024-02-21T09:53:14;10.65;;;5.10;;
33022;SDS011;19390;51.460;5.710;2024-02-21T09:55:40;9.38;;;4.57;;
33022;SDS011;19390;51.460;5.710;2024-02-21T09:58:09;13.23;;;5.53;;
33022;SDS011;19390;51.460;5.710;2024-02-21T10:00:36;11.73;;;5.13;;
33022;SDS011;19390;51.460;5.710;2024-02-21T10:03:02;11.48;;;4.43;;
33022;SDS011;19390;51.460;5.710;2024-02-21T10:05:34;11.80;;;4.40;;
33022;SDS011;19390;51.460;5.710;2024-02-21T10:08:00;6.20;;;3.92;;
33022;SDS011;19390;51.460;5.710;2024-02-21T10:10:27;8.90;;;4.45;;
33022;SDS011;19390;51.460;5.710;2024-02-21T10:12:54;9.82;;;4.32;;
33022;SDS011;19390;51.460;5.710;2024-02-21T10:15:21;12.10;;;4.82;;
33022;SDS011;19390;51.460;5.710;2024-02-21T10:17:57;16.98;;;4.88;;
33022;SDS011;19390;51.460;5.710;2024-02-21T10:20:25;11.02;;;4.28;;
33022;SDS011;19390;51.460;5.710;2024-02-21T10:23:00;15.70;;;5.82;;
33022;SDS011;19390;51.460;5.710;2024-02-21T10:25:27;10.52;;;4.57;;
33022;SDS011;19390;51.460;5.710;2024-02-21T10:27:53;12.95;;;4.13;;
33022;SDS011;19390;51.460;5.710;2024-02-21T10:30:19;16.13;;;4.65;;
33022;SDS011;19390;51.460;5.710;2024-02-21T10:32:52;8.88;;;3.28;;
33022;SDS011;19390;51.460;5.710;2024-02-21T10:35:31;12.45;;;3.80;;
33022;SDS011;19390;51.460;5.710;2024-02-21T10:37:58;6.95;;;2.92;;
33022;SDS011;19390;51.460;5.710;2024-02-21T10:40:28;10.20;;;3.83;;
33022;SDS011;19390;51.460;5.710;2024-02-21T10:42:58;8.70;;;3.97;;
33022;SDS011;19390;51.460;5.710;2024-02-21T10:45:29;11.68;;;3.53;;
33022;SDS011;19390;51.460;5.710;2024-02-21T10:47:59;9.30;;;3.72;;
33022;SDS011;19390;51.460;5.710;2024-02-21T10:50:33;10.13;;;3.88;;
33022;SDS011;19390;51.460;5.710;2024-02-21T10:58:54;7.47;;;3.25;;
33022;SDS011;19390;51.460;5.710;2024-02-21T11:01:22;8.90;;;3.50;;
33022;SDS011;19390;51.460;5.710;2024-02-21T11:03:49;10.57;;;3.80;;
33022;SDS011;19390;51.460;5.710;2024-02-21T11:06:18;10.38;;;3.65;;
33022;SDS011;19390;51.460;5.710;2024-02-21T11:08:45;8.73;;;3.35;;
33022;SDS011;19390;51.460;5.710;2024-02-21T11:11:12;13.73;;;3.70;;
33022;SDS011;19390;51.460;5.710;2024-02-21T11:13:42;14.23;;;4.07;;
33022;SDS011;19390;51.460;5.710;2024-02-21T11:16:11;12.00;;;3.50;;
33022;SDS011;19390;51.460;5.710;2024-02-21T11:18:47;11.40;;;4.18;;
33022;SDS011;19390;51.460;5.710;2024-02-21T11:21:12;11.93;;;4.05;;
33022;SDS011;19390;51.460;5.710;2024-02-21T11:23:38;11.02;;;3.20;;
33022;SDS011;19390;51.460;5.710;2024-02-21T11:26:10;8.30;;;3.08;;
33022;SDS011;19390;51.460;5.710;2024-02-21T11:28:55;9.73;;;3.73;;
33022;SDS011;19390;51.460;5.710;2024-02-21T11:31:22;6.93;;;3.35;;
33022;SDS011;19390;51.460;5.710;2024-02-21T11:33:48;13.07;;;3.65;;
33022;SDS011;19390;51.460;5.710;2024-02-21T11:36:24;7.28;;;3.03;;
33022;SDS011;19390;51.460;5.710;2024-02-21T11:38:50;8.25;;;3.78;;
33022;SDS011;19390;51.460;5.710;2024-02-21T11:41:18;8.55;;;3.25;;
33022;SDS011;19390;51.460;5.710;2024-02-21T11:43:44;8.70;;;3.78;;
33022;SDS011;19390;51.460;5.710;2024-02-21T11:46:09;8.40;;;3.33;;
33022;SDS011;19390;51.460;5.710;2024-02-21T11:48:35;10.50;;;3.65;;
33022;SDS011;19390;51.460;5.710;2024-02-21T11:51:00;6.85;;;2.72;;
33022;SDS011;19390;51.460;5.710;2024-02-21T11:53:28;9.60;;;3.38;;
33022;SDS011;19390;51.460;5.710;2024-02-21T11:55:55;10.27;;;3.10;;
33022;SDS011;19390;51.460;5.710;2024-02-21T11:58:22;9.25;;;3.15;;
33022;SDS011;19390;51.460;5.710;2024-02-21T12:00:47;9.85;;;3.13;;
33022;SDS011;19390;51.460;5.710;2024-02-21T12:03:13;10.35;;;3.63;;
33022;SDS011;19390;51.460;5.710;2024-02-21T12:05:40;8.93;;;3.20;;
33022;SDS011;19390;51.460;5.710;2024-02-21T12:08:06;14.88;;;3.72;;
33022;SDS011;19390;51.460;5.710;2024-02-21T12:10:33;8.57;;;3.08;;
33022;SDS011;19390;51.460;5.710;2024-02-21T12:13:09;16.67;;;4.00;;
33022;SDS011;19390;51.460;5.710;2024-02-21T12:15:35;7.40;;;3.22;;
33022;SDS011;19390;51.460;5.710;2024-02-21T12:18:01;10.73;;;3.35;;
33022;SDS011;19390;51.460;5.710;2024-02-21T12:20:27;9.93;;;3.42;;
33022;SDS011;19390;51.460;5.710;2024-02-21T12:22:53;12.38;;;3.40;;
33022;SDS011;19390;51.460;5.710;2024-02-21T12:25:20;11.35;;;5.05;;
33022;SDS011;19390;51.460;5.710;2024-02-21T12:27:47;8.05;;;3.17;;
33022;SDS011;19390;51.460;5.710;2024-02-21T12:30:14;13.55;;;4.13;;
33022;SDS011;19390;51.460;5.710;2024-02-21T12:32:40;11.52;;;3.22;;
33022;SDS011;19390;51.460;5.710;2024-02-21T12:35:06;11.32;;;4.00;;
33022;SDS011;19390;51.460;5.710;2024-02-21T12:37:32;8.82;;;3.50;;
33022;SDS011;19390;51.460;5.710;2024-02-21T12:39:58;12.77;;;3.22;;
33022;SDS011;19390;51.460;5.710;2024-02-21T12:42:23;9.02;;;3.00;;
33022;SDS011;19390;51.460;5.710;2024-02-21T12:44:50;17.30;;;5.22;;
33022;SDS011;19390;51.460;5.710;2024-02-21T12:47:17;7.53;;;3.22;;
33022;SDS011;19390;51.460;5.710;2024-02-21T12:49:44;12.68;;;3.42;;
33022;SDS011;19390;51.460;5.710;2024-02-21T12:52:10;6.15;;;3.17;;
33022;SDS011;19390;51.460;5.710;2024-02-21T12:54:36;13.43;;;3.58;;
33022;SDS011;19390;51.460;5.710;2024-02-21T12:57:02;10.10;;;3.25;;
33022;SDS011;19390;51.460;5.710;2024-02-21T12:59:28;5.32;;;2.55;;
33022;SDS011;19390;51.460;5.710;2024-02-21T13:01:54;9.35;;;3.58;;
33022;SDS011;19390;51.460;5.710;2024-02-21T13:04:20;10.00;;;3.15;;
33022;SDS011;19390;51.460;5.710;2024-02-21T13:06:47;12.07;;;3.45;;
33022;SDS011;19390;51.460;5.710;2024-02-21T13:09:13;6.07;;;3.50;;
33022;SDS011;19390;51.460;5.710;2024-02-21T13:11:39;8.23;;;3.17;;
33022;SDS011;19390;51.460;5.710;2024-02-21T13:14:05;11.43;;;3.85;;
33022;SDS011;19390;51.460;5.710;2024-02-21T13:16:31;10.20;;;3.10;;
33022;SDS011;19390;51.460;5.710;2024-02-21T13:18:59;6.20;;;3.15;;
33022;SDS011;19390;51.460;5.710;2024-02-21T13:21:25;10.68;;;3.17;;
33022;SDS011;19390;51.460;5.710;2024-02-21T13:23:50;17.10;;;5.97;;
33022;SDS011;19390;51.460;5.710;2024-02-21T13:26:16;11.18;;;3.42;;
33022;SDS011;19390;51.460;5.710;2024-02-21T13:28:42;10.60;;;3.13;;
33022;SDS011;19390;51.460;5.710;2024-02-21T13:31:09;7.38;;;3.63;;
33022;SDS011;19390;51.460;5.710;2024-02-21T13:33:35;10.25;;;2.85;;
33022;SDS011;19390;51.460;5.710;2024-02-21T13:36:01;13.27;;;2.75;;
33022;SDS011;19390;51.460;5.710;2024-02-21T13:38:28;4.95;;;2.55;;
33022;SDS011;19390;51.460;5.710;2024-02-21T13:40:54;9.75;;;3.03;;
33022;SDS011;19390;51.460;5.710;2024-02-21T13:43:19;8.98;;;2.53;;
33022;SDS011;19390;51.460;5.710;2024-02-21T13:45:55;10.73;;;3.45;;
33022;SDS011;19390;51.460;5.710;2024-02-21T13:48:22;5.03;;;2.60;;
33022;SDS011;19390;51.460;5.710;2024-02-21T13:50:48;3.92;;;1.95;;
33022;SDS011;19390;51.460;5.710;2024-02-21T13:53:13;6.80;;;2.30;;
33022;SDS011;19390;51.460;5.710;2024-02-21T13:55:39;6.35;;;2.97;;
33022;SDS011;19390;51.460;5.710;2024-02-21T13:58:05;6.43;;;2.00;;
33022;SDS011;19390;51.460;5.710;2024-02-21T14:00:31;5.68;;;2.20;;
33022;SDS011;19390;51.460;5.710;2024-02-21T14:02:59;6.13;;;2.22;;
33022;SDS011;19390;51.460;5.710;2024-02-21T14:05:26;7.03;;;2.45;;
33022;SDS011;19390;51.460;5.710;2024-02-21T14:07:51;5.05;;;2.65;;
33022;SDS011;19390;51.460;5.710;2024-02-21T14:10:19;5.22;;;2.00;;
33022;SDS011;19390;51.460;5.710;2024-02-21T14:12:45;7.78;;;3.15;;
33022;SDS011;19390;51.460;5.710;2024-02-21T14:15:12;6.35;;;2.20;;
33022;SDS011;19390;51.460;5.710;2024-02-21T14:17:38;5.05;;;2.10;;
33022;SDS011;19390;51.460;5.710;2024-02-21T14:20:04;3.97;;;2.05;;
33022;SDS011;19390;51.460;5.710;2024-02-21T14:22:31;6.18;;;2.50;;
33022;SDS011;19390;51.460;5.710;2024-02-21T14:24:56;6.55;;;2.65;;
33022;SDS011;19390;51.460;5.710;2024-02-21T14:27:22;5.40;;;2.08;;
33022;SDS011;19390;51.460;5.710;2024-02-21T14:29:48;5.97;;;2.22;;
33022;SDS011;19390;51.460;5.710;2024-02-21T14:32:13;8.10;;;2.67;;
33022;SDS011;19390;51.460;5.710;2024-02-21T14:34:39;7.80;;;2.53;;
33022;SDS011;19390;51.460;5.710;2024-02-21T14:37:04;5.25;;;2.25;;
33022;SDS011;19390;51.460;5.710;2024-02-21T14:39:30;11.00;;;2.17;;